createdAt,value
2019-05-09T00:04:55.486Z,10.08
2019-05-09T00:07:41.231Z,10.08
2019-05-09T00:10:38.473Z,10.07
2019-05-09T00:13:14.604Z,10.03
2019-05-09T00:16:00.304Z,9.96
2019-05-09T00:18:26.175Z,9.96
2019-05-09T00:21:13.429Z,9.95
2019-05-09T00:23:39.669Z,9.93
2019-05-09T00:26:05.513Z,9.90
2019-05-09T00:36:36.227Z,9.81
2019-05-09T00:42:15.696Z,9.79
2019-05-09T00:45:02.042Z,9.79
2019-05-09T00:47:49.062Z,9.76
2019-05-09T00:50:14.910Z,9.76
2019-05-09T00:52:42.960Z,9.74
2019-05-09T00:55:08.497Z,9.73
2019-05-09T00:57:34.341Z,9.76
2019-05-09T01:00:20.541Z,9.68
2019-05-09T01:03:06.257Z,9.67
2019-05-09T01:05:34.116Z,9.67
2019-05-09T01:10:47.434Z,9.60
2019-05-09T01:13:14.208Z,9.58
2019-05-09T01:16:01.091Z,9.54
2019-05-09T01:18:26.939Z,9.47
2019-05-09T01:20:53.169Z,9.47
2019-05-09T01:23:20.559Z,9.51
2019-05-09T01:25:46.407Z,9.44
2019-05-09T01:28:13.931Z,9.46
2019-05-09T01:30:59.894Z,9.39
2019-05-09T01:36:54.049Z,9.39
2019-05-09T01:39:39.910Z,9.26
2019-05-09T01:42:05.845Z,9.26
2019-05-09T01:44:33.452Z,9.34
2019-05-09T01:46:59.762Z,9.34
2019-05-09T01:49:25.598Z,9.34
2019-05-09T01:51:53.542Z,9.32
2019-05-09T01:56:56.296Z,9.32
2019-05-09T02:02:16.618Z,9.25
2019-05-09T02:04:43.935Z,9.17
2019-05-09T02:07:10.423Z,9.22
2019-05-09T02:09:36.279Z,9.17
2019-05-09T02:12:03.828Z,9.18
2019-05-09T02:15:09.706Z,9.14
2019-05-09T02:18:01.460Z,9.14
2019-05-09T02:20:43.911Z,9.14
2019-05-09T02:23:10.829Z,9.14
2019-05-09T02:25:36.655Z,9.06
2019-05-09T02:28:03.504Z,9.08
2019-05-09T02:30:50.119Z,9.07
2019-05-09T02:33:35.845Z,9.06
2019-05-09T02:36:02.380Z,9.06
2019-05-09T02:38:29.486Z,9.08
2019-05-09T02:40:55.298Z,9.04
2019-05-09T02:43:21.166Z,8.97
2019-05-09T02:48:34.394Z,9.02
2019-05-09T02:51:00.601Z,9.14
2019-05-09T02:53:28.948Z,9.11
2019-05-09T02:55:58.330Z,9.01
2019-05-09T03:01:18.915Z,8.87
2019-05-09T03:04:04.595Z,8.92
2019-05-09T03:06:30.441Z,8.92
2019-05-09T03:08:59.104Z,9.08
2019-05-09T03:11:24.269Z,9.05
2019-05-09T03:13:50.129Z,8.96
2019-05-09T03:19:03.442Z,8.96
2019-05-09T03:21:49.397Z,8.97
2019-05-09T03:24:35.173Z,8.93
2019-05-09T03:30:50.137Z,8.94
2019-05-09T03:33:15.749Z,8.94
2019-05-09T03:35:41.594Z,8.87
2019-05-09T03:38:08.345Z,8.87
2019-05-09T03:41:17.752Z,8.89
2019-05-09T03:43:58.675Z,8.56
2019-05-09T03:46:40.136Z,8.67
2019-05-09T03:51:53.424Z,8.61
2019-05-09T03:54:19.257Z,8.72
2019-05-09T03:57:04.991Z,8.75
2019-05-09T03:59:30.842Z,8.79
2019-05-09T04:01:59.031Z,8.66
2019-05-09T04:04:24.432Z,8.91
2019-05-09T04:06:50.299Z,8.91
2019-05-09T04:09:17.934Z,8.56
2019-05-09T04:12:03.747Z,8.78
2019-05-09T04:14:49.475Z,8.68
2019-05-09T04:17:55.082Z,8.69
2019-05-09T04:20:40.815Z,8.39
2019-05-09T04:23:27.591Z,8.13
2019-05-09T04:26:14.365Z,8.13
2019-05-09T04:29:00.080Z,8.24
2019-05-09T04:31:27.832Z,8.24
2019-05-09T04:33:53.729Z,8.24
2019-05-09T04:38:57.824Z,8.26
2019-05-09T04:41:25.423Z,8.36
2019-05-09T04:43:52.253Z,8.46
2019-05-09T04:46:24.114Z,8.43
2019-05-09T04:48:47.600Z,8.60
2019-05-09T04:51:33.590Z,8.88
2019-05-09T04:54:41.097Z,8.92
2019-05-09T04:57:27.892Z,9.11
2019-05-09T04:59:54.606Z,9.11
2019-05-09T05:02:40.355Z,8.99
2019-05-09T05:08:13.667Z,8.84
2019-05-09T05:10:39.507Z,9.05
2019-05-09T05:13:07.670Z,9.05
2019-05-09T05:15:33.091Z,9.03
2019-05-09T05:17:58.932Z,9.13
2019-05-09T05:23:31.995Z,9.06
2019-05-09T05:28:51.697Z,9.08
2019-05-09T05:31:18.162Z,9.03
2019-05-09T05:34:05.168Z,8.98
2019-05-09T05:36:31.020Z,8.95
2019-05-09T05:38:58.450Z,9.01
2019-05-09T05:41:44.492Z,9.11
2019-05-09T05:44:23.568Z,9.14
2019-05-09T05:47:07.784Z,9.22
2019-05-09T05:49:33.817Z,9.22
2019-05-09T05:51:59.686Z,9.23
2019-05-09T05:54:27.539Z,9.16
2019-05-09T05:57:13.171Z,9.37
2019-05-09T05:59:58.883Z,9.52
2019-05-09T06:02:24.738Z,9.52
2019-05-09T06:04:50.568Z,9.57
2019-05-09T06:07:18.465Z,9.76
2019-05-09T06:09:44.178Z,9.87
2019-05-09T06:12:10.029Z,9.76
2019-05-09T06:14:37.799Z,9.83
2019-05-09T06:17:03.659Z,9.94
2019-05-09T06:19:29.483Z,10.10
2019-05-09T06:21:57.276Z,10.09
2019-05-09T06:24:42.941Z,10.17
2019-05-09T06:27:28.675Z,10.23
2019-05-09T06:29:54.525Z,10.23
2019-05-09T06:32:20.369Z,10.32
2019-05-09T06:34:47.696Z,10.42
2019-05-09T06:37:13.975Z,10.39
2019-05-09T06:39:39.923Z,10.24
2019-05-09T06:42:08.589Z,10.19
2019-05-09T06:52:57.205Z,10.16
2019-05-09T06:55:42.761Z,10.14
2019-05-09T06:58:48.356Z,10.22
2019-05-09T07:01:34.081Z,10.22
2019-05-09T07:06:58.798Z,10.20
2019-05-09T07:12:02.043Z,10.44
2019-05-09T07:14:48.707Z,10.63
2019-05-09T07:17:34.730Z,10.54
2019-05-09T07:20:00.668Z,10.54
2019-05-09T07:28:07.844Z,10.44
2019-05-09T07:30:53.559Z,10.62
2019-05-09T07:35:58.063Z,10.81
2019-05-09T07:38:44.228Z,10.94
2019-05-09T07:41:10.074Z,10.94
2019-05-09T07:43:38.314Z,10.81
2019-05-09T07:51:24.688Z,10.87
2019-05-09T07:53:50.547Z,10.98
2019-05-09T07:56:18.509Z,10.90
2019-05-09T07:58:44.179Z,11.06
2019-05-09T08:01:09.999Z,11.27
2019-05-09T08:03:38.135Z,11.35
2019-05-09T08:06:03.689Z,11.50
2019-05-09T08:08:29.531Z,11.62
2019-05-09T08:10:55.386Z,11.67
2019-05-09T08:13:21.703Z,11.64
2019-05-09T08:15:49.084Z,11.91
2019-05-09T08:18:17.336Z,12.19
2019-05-09T08:21:02.528Z,12.56
2019-05-09T08:23:48.647Z,13.20
2019-05-09T08:26:14.596Z,12.96
2019-05-09T08:28:40.426Z,12.96
2019-05-09T08:33:59.679Z,12.59
2019-05-09T08:36:25.483Z,12.24
2019-05-09T08:38:51.348Z,12.02
2019-05-09T08:41:18.652Z,11.82
2019-05-09T08:43:44.959Z,11.73
2019-05-09T08:46:10.904Z,11.85
2019-05-09T08:48:37.843Z,12.29
2019-05-09T08:53:58.124Z,13.15
2019-05-09T08:56:23.975Z,13.34
2019-05-09T08:58:49.828Z,13.52
2019-05-09T09:01:27.351Z,13.53
2019-05-09T09:03:43.464Z,13.51
2019-05-09T09:06:09.319Z,13.46
2019-05-09T09:08:37.731Z,13.17
2019-05-09T09:11:02.919Z,12.99
2019-05-09T09:13:28.744Z,13.02
2019-05-09T09:16:11.734Z,13.18
2019-05-09T09:18:22.361Z,13.33
2019-05-09T09:20:48.698Z,13.53
2019-05-09T09:23:18.041Z,13.74
2019-05-09T09:25:43.749Z,13.44
2019-05-09T09:28:09.577Z,13.93
2019-05-09T09:30:38.079Z,13.98
2019-05-09T09:33:03.359Z,13.74
2019-05-09T09:35:29.203Z,13.89
2019-05-09T09:37:57.753Z,14.27
2019-05-09T09:40:22.813Z,14.07
2019-05-09T09:42:49.147Z,14.04
2019-05-09T09:45:18.385Z,13.76
2019-05-09T09:47:44.184Z,13.71
2019-05-09T09:50:51.949Z,13.95
2019-05-09T09:53:18.510Z,14.19
2019-05-09T09:55:47.595Z,14.31
2019-05-09T09:58:13.490Z,14.01
2019-05-09T10:01:19.086Z,13.93
2019-05-09T10:03:47.277Z,14.17
2019-05-09T10:06:12.722Z,14.23
2019-05-09T10:08:39.680Z,14.18
2019-05-09T10:11:08.149Z,14.32
2019-05-09T10:13:34.095Z,14.02
2019-05-09T10:16:29.127Z,14.05
2019-05-09T10:19:08.256Z,14.08
2019-05-09T10:21:54.097Z,14.18
2019-05-09T10:24:19.940Z,14.23
2019-05-09T10:27:08.329Z,14.31
2019-05-09T10:30:15.041Z,14.27
2019-05-09T10:32:40.905Z,13.94
2019-05-09T10:35:08.784Z,14.33
2019-05-09T10:37:34.498Z,14.53
2019-05-09T10:40:00.351Z,14.92
2019-05-09T10:45:45.031Z,14.75
2019-05-09T10:48:10.932Z,14.87
2019-05-09T10:50:43.083Z,14.84
2019-05-09T10:53:04.579Z,15.37
2019-05-09T10:55:30.418Z,15.37
2019-05-09T10:58:01.995Z,14.97
2019-05-09T11:00:24.152Z,14.83
2019-05-09T11:02:50.015Z,14.79
2019-05-09T11:05:18.275Z,14.72
2019-05-09T11:07:43.826Z,14.60
2019-05-09T11:10:24.757Z,14.54
2019-05-09T11:12:37.600Z,14.77
2019-05-09T11:15:45.110Z,14.89
2019-05-09T11:18:11.033Z,15.11
2019-05-09T11:20:36.877Z,15.40
2019-05-09T11:23:02.722Z,15.45
2019-05-09T11:25:28.579Z,14.98
2019-05-09T11:28:06.974Z,14.96
2019-05-09T11:30:22.269Z,14.73
2019-05-09T11:32:48.229Z,14.86
2019-05-09T11:35:14.076Z,14.87
2019-05-09T11:37:39.939Z,14.84
2019-05-09T11:40:48.288Z,14.51
2019-05-09T11:43:17.947Z,14.28
2019-05-09T11:45:43.039Z,14.84
2019-05-09T11:48:08.882Z,14.92
2019-05-09T11:50:34.730Z,14.72
2019-05-09T11:53:00.791Z,15.16
2019-05-09T11:55:34.813Z,15.63
2019-05-09T11:57:54.385Z,15.68
2019-05-09T12:00:20.241Z,15.53
2019-05-09T12:02:46.095Z,15.27
2019-05-09T12:05:12.046Z,15.16
2019-05-09T12:07:38.174Z,15.13
2019-05-09T12:10:47.291Z,15.04
2019-05-09T12:13:13.145Z,15.16
2019-05-09T12:15:39.188Z,15.01
2019-05-09T12:18:10.711Z,14.70
2019-05-09T12:23:20.221Z,14.48
2019-05-09T12:25:46.029Z,14.35
2019-05-09T12:28:11.890Z,14.81
2019-05-09T12:30:38.045Z,15.09
2019-05-09T12:33:08.318Z,15.06
2019-05-09T12:35:33.238Z,15.28
2019-05-09T12:37:59.093Z,15.19
2019-05-09T12:40:24.929Z,14.72
2019-05-09T12:42:50.779Z,14.43
2019-05-09T12:45:18.020Z,14.35
2019-05-09T12:47:44.580Z,14.48
2019-05-09T12:50:10.634Z,14.56
2019-05-09T12:52:39.052Z,14.23
2019-05-09T12:55:47.588Z,14.03
2019-05-09T12:58:33.500Z,13.99
2019-05-09T13:00:59.346Z,13.76
2019-05-09T13:04:09.448Z,13.52
2019-05-09T13:06:34.572Z,13.41
2019-05-09T13:09:00.425Z,13.24
2019-05-09T13:11:27.970Z,13.21
2019-05-09T13:13:54.009Z,13.28
2019-05-09T13:16:48.572Z,13.28
2019-05-09T13:21:41.462Z,14.15
2019-05-09T13:24:08.404Z,14.86
2019-05-09T13:26:35.089Z,14.92
2019-05-09T13:29:00.914Z,14.92
2019-05-09T13:31:29.384Z,15.22
2019-05-09T13:33:54.733Z,15.89
2019-05-09T13:36:20.554Z,16.18
2019-05-09T13:38:56.398Z,16.82
2019-05-09T13:41:14.236Z,16.96
2019-05-09T13:43:48.033Z,16.60
2019-05-09T13:46:08.981Z,15.82
2019-05-09T13:48:57.387Z,15.78
2019-05-09T13:51:03.397Z,15.37
2019-05-09T13:53:29.240Z,15.21
2019-05-09T13:55:55.603Z,14.96
2019-05-09T13:58:22.866Z,15.03
2019-05-09T14:00:58.914Z,15.02
2019-05-09T14:03:18.069Z,14.90
2019-05-09T14:05:44.395Z,14.90
2019-05-09T14:08:11.789Z,14.75
2019-05-09T14:10:38.747Z,14.69
2019-05-09T14:13:12.768Z,14.75
2019-05-09T14:15:33.502Z,14.73
2019-05-09T14:17:59.332Z,14.60
2019-05-09T14:20:25.168Z,14.61
2019-05-09T14:22:51.005Z,14.52
2019-05-09T14:25:19.650Z,14.52
2019-05-09T14:27:48.923Z,14.28
2019-05-09T14:30:12.454Z,14.51
2019-05-09T14:32:40.085Z,14.48
2019-05-09T14:35:08.526Z,14.56
2019-05-09T14:37:33.923Z,14.63
2019-05-09T14:40:04.218Z,14.82
2019-05-09T14:42:29.022Z,14.92
2019-05-09T14:44:55.450Z,15.17
2019-05-09T14:47:21.441Z,15.18
2019-05-09T14:49:49.757Z,15.19
2019-05-09T14:52:15.118Z,15.12
2019-05-09T14:57:35.248Z,14.82
2019-05-09T15:00:42.773Z,14.94
2019-05-09T15:03:08.779Z,14.90
2019-05-09T15:05:34.689Z,14.82
2019-05-09T15:10:54.374Z,14.81
2019-05-09T15:13:20.232Z,15.01
2019-05-09T15:15:48.007Z,14.98
2019-05-09T15:18:13.969Z,15.21
2019-05-09T15:21:21.467Z,15.30
2019-05-09T15:23:48.175Z,15.22
2019-05-09T15:26:17.520Z,15.26
2019-05-09T15:28:42.930Z,15.18
2019-05-09T15:31:09.007Z,15.05
2019-05-09T15:33:37.462Z,15.00
2019-05-09T15:36:02.740Z,14.86
2019-05-09T15:38:29.168Z,14.67
2019-05-09T15:40:56.484Z,14.44
2019-05-09T15:43:22.387Z,14.03
2019-05-09T15:46:08.461Z,13.13
2019-05-09T15:48:34.335Z,11.87
2019-05-09T15:51:00.265Z,11.18
2019-05-09T15:53:27.847Z,11.13
2019-05-09T15:55:53.890Z,10.95
2019-05-09T15:58:19.784Z,10.92
2019-05-09T16:00:47.799Z,10.85
2019-05-09T16:03:13.533Z,10.78
2019-05-09T16:05:39.429Z,10.86
2019-05-09T16:08:08.429Z,10.96
2019-05-09T16:10:33.090Z,11.08
2019-05-09T16:12:58.936Z,11.06
2019-05-09T16:16:08.812Z,11.08
2019-05-09T16:18:34.267Z,11.18
2019-05-09T16:21:00.111Z,11.33
2019-05-09T16:23:28.880Z,11.30
2019-05-09T16:25:53.767Z,11.31
2019-05-09T16:28:19.628Z,11.39
2019-05-09T16:30:45.471Z,11.52
2019-05-09T16:33:11.298Z,11.62
2019-05-09T16:35:38.131Z,11.48
2019-05-09T16:38:38.841Z,11.53
2019-05-09T16:40:52.581Z,11.53
2019-05-09T16:43:18.437Z,11.54
2019-05-09T16:48:58.340Z,11.52
2019-05-09T16:51:24.281Z,11.52
2019-05-09T16:53:50.134Z,11.55
2019-05-09T16:56:18.069Z,11.61
2019-05-09T16:58:43.744Z,11.71
2019-05-09T17:01:09.708Z,11.72
2019-05-09T17:03:35.549Z,11.81
2019-05-09T17:06:01.419Z,11.83
2019-05-09T17:08:28.256Z,11.79
2019-05-09T17:10:55.077Z,11.78
2019-05-09T17:13:21.002Z,11.75
2019-05-09T17:15:46.865Z,11.76
2019-05-09T17:18:12.853Z,11.81
2019-05-09T17:26:00.264Z,11.83
2019-05-09T17:28:28.316Z,11.67
2019-05-09T17:30:54.099Z,11.73
2019-05-09T17:33:19.963Z,11.73
2019-05-09T17:35:48.122Z,11.72
2019-05-09T17:38:33.585Z,11.62
2019-05-09T17:40:59.693Z,11.62
2019-05-09T17:43:27.616Z,11.70
2019-05-09T17:45:53.464Z,11.50
2019-05-09T17:48:19.302Z,11.46
2019-05-09T17:50:45.183Z,11.34
2019-05-09T17:53:11.003Z,11.46
2019-05-09T17:55:38.144Z,11.38
2019-05-09T17:58:04.775Z,11.35
2019-05-09T18:00:30.827Z,11.36
2019-05-09T18:02:58.002Z,11.36
2019-05-09T18:05:24.590Z,11.37
2019-05-09T18:07:50.450Z,11.43
2019-05-09T18:10:58.473Z,11.51
2019-05-09T18:13:24.498Z,11.50
2019-05-09T18:15:50.356Z,11.50
2019-05-09T18:18:58.657Z,11.28
2019-05-09T18:21:25.742Z,11.39
2019-05-09T18:23:51.626Z,11.37
2019-05-09T18:26:18.529Z,11.43
2019-05-09T18:28:47.745Z,11.41
2019-05-09T18:31:13.279Z,11.52
2019-05-09T18:33:59.068Z,11.50
2019-05-09T18:36:25.149Z,11.47
2019-05-09T18:38:51.076Z,11.47
2019-05-09T18:41:17.807Z,11.46
2019-05-09T18:43:44.827Z,11.46
2019-05-09T18:46:10.707Z,11.46
2019-05-09T18:48:38.272Z,11.46
2019-05-09T18:51:24.228Z,11.37
2019-05-09T18:53:50.091Z,11.37
2019-05-09T18:56:15.958Z,11.31
2019-05-09T18:58:41.831Z,11.36
2019-05-09T19:01:07.813Z,11.36
2019-05-09T19:03:33.671Z,11.43
2019-05-09T19:05:59.560Z,11.40
2019-05-09T19:08:25.445Z,11.35
2019-05-09T19:10:52.338Z,11.35
2019-05-09T19:13:19.061Z,11.36
2019-05-09T19:16:04.822Z,11.30
2019-05-09T19:18:50.558Z,11.32
2019-05-09T19:21:36.418Z,11.25
2019-05-09T19:24:02.639Z,11.31
2019-05-09T19:26:48.351Z,11.37
2019-05-09T19:29:14.251Z,11.25
2019-05-09T19:31:40.084Z,11.28
2019-05-09T19:34:06.229Z,11.18
2019-05-09T19:36:32.097Z,11.19
2019-05-09T19:39:39.615Z,11.08
2019-05-09T19:42:05.495Z,10.72
2019-05-09T19:44:31.356Z,11.02
2019-05-09T19:46:57.263Z,10.94
2019-05-09T19:49:23.082Z,10.94
2019-05-09T19:51:48.941Z,10.97
2019-05-09T19:54:14.786Z,10.87
2019-05-09T19:56:40.632Z,10.90
2019-05-09T19:59:07.798Z,10.87
2019-05-09T20:01:34.362Z,10.81
2019-05-09T20:04:00.206Z,10.72
2019-05-09T20:06:26.130Z,10.66
2019-05-09T20:08:52.031Z,10.58
2019-05-09T20:11:37.859Z,10.60
2019-05-09T20:17:00.811Z,10.61
2019-05-09T20:19:26.651Z,10.61
2019-05-09T20:21:52.599Z,10.57
2019-05-09T20:24:18.530Z,10.64
2019-05-09T20:26:44.376Z,10.69
2019-05-09T20:29:10.204Z,10.69
2019-05-09T20:31:36.135Z,10.71
2019-05-09T20:34:02.172Z,10.73
2019-05-09T20:36:28.061Z,10.73
2019-05-09T20:38:53.962Z,10.73
2019-05-09T20:41:19.864Z,10.70
2019-05-09T20:43:45.721Z,10.73
2019-05-09T20:46:11.678Z,10.72
2019-05-09T20:48:37.554Z,10.69
2019-05-09T20:51:03.422Z,10.73
2019-05-09T20:53:29.295Z,10.72
2019-05-09T20:55:55.128Z,10.69
2019-05-09T20:58:21.071Z,10.69
2019-05-09T21:00:46.925Z,10.70
2019-05-09T21:03:12.778Z,10.64
2019-05-09T21:05:38.634Z,10.65
2019-05-09T21:08:04.585Z,10.63
2019-05-09T21:10:30.484Z,10.60
2019-05-09T21:12:56.316Z,10.60
2019-05-09T21:15:22.160Z,10.57
2019-05-09T21:17:48.034Z,10.59
2019-05-09T21:20:13.959Z,10.54
2019-05-09T21:22:39.843Z,10.52
2019-05-09T21:25:06.057Z,10.50
2019-05-09T21:27:31.898Z,10.50
2019-05-09T21:29:57.746Z,10.48
2019-05-09T21:32:30.975Z,10.47
2019-05-09T21:34:56.834Z,10.48
2019-05-09T21:37:22.663Z,10.46
2019-05-09T21:39:48.546Z,10.46
2019-05-09T21:42:14.370Z,10.16
2019-05-09T21:44:40.240Z,10.46
2019-05-09T21:47:06.115Z,10.42
2019-05-09T21:49:31.975Z,10.42
2019-05-09T21:51:57.830Z,10.43
2019-05-09T21:54:23.672Z,10.42
2019-05-09T21:56:49.516Z,10.43
2019-05-09T21:59:15.350Z,10.43
2019-05-09T22:02:22.852Z,10.42
2019-05-09T22:04:48.696Z,10.42
2019-05-09T22:07:14.551Z,10.39
2019-05-09T22:09:40.484Z,10.41
2019-05-09T22:12:06.657Z,10.46
2019-05-09T22:14:52.349Z,10.22
2019-05-09T22:17:38.096Z,10.22
2019-05-09T22:20:23.817Z,10.38
2019-05-09T22:23:09.557Z,10.48
2019-05-09T22:25:55.297Z,10.37
2019-05-09T22:28:21.235Z,10.37
2019-05-09T22:30:47.066Z,10.46
2019-05-09T22:33:13.012Z,10.32
2019-05-09T22:38:52.298Z,10.53
2019-05-09T22:41:18.168Z,10.53
2019-05-09T22:43:43.988Z,10.61
2019-05-09T22:46:09.911Z,10.60
2019-05-09T22:48:35.790Z,10.58
2019-05-09T22:51:01.652Z,10.61
2019-05-09T22:53:27.485Z,10.60
2019-05-09T22:55:53.330Z,10.59
2019-05-09T22:58:19.193Z,10.53
2019-05-09T23:00:45.120Z,10.46
2019-05-09T23:03:10.990Z,10.50
2019-05-09T23:05:36.828Z,10.41
2019-05-09T23:08:02.677Z,10.34
2019-05-09T23:10:28.617Z,10.16
2019-05-09T23:12:54.559Z,10.22
2019-05-09T23:15:20.482Z,10.13
2019-05-09T23:17:46.371Z,9.98
2019-05-09T23:20:32.263Z,10.31
2019-05-09T23:25:31.747Z,10.45
2019-05-09T23:27:57.626Z,10.49
2019-05-09T23:30:23.470Z,10.51
2019-05-09T23:32:49.323Z,10.51
2019-05-09T23:35:15.157Z,10.48
2019-05-09T23:37:41.019Z,10.50
2019-05-09T23:40:48.493Z,10.49
2019-05-09T23:43:34.208Z,10.51
2019-05-09T23:46:00.071Z,10.51
2019-05-09T23:48:25.911Z,10.49
2019-05-09T23:50:51.740Z,10.52
2019-05-09T23:53:59.232Z,10.48
2019-05-09T23:57:04.850Z,10.57
